sensor_id;sensor_type;location;lat;lon;timestamp;P1;durP1;ratioP1;P2;durP2;ratioP2
61322;SDS011;47203;48.428;11.974;2023-02-01T00:00:50;4.50;;;3.15;;
61322;SDS011;47203;48.428;11.974;2023-02-01T00:02:54;7.10;;;2.85;;
61322;SDS011;47203;48.428;11.974;2023-02-01T00:04:59;5.70;;;2.95;;
61322;SDS011;47203;48.428;11.974;2023-02-01T00:07:04;3.60;;;2.55;;
61322;SDS011;47203;48.428;11.974;2023-02-01T00:09:08;4.72;;;2.53;;
61322;SDS011;47203;48.428;11.974;2023-02-01T00:11:16;4.50;;;2.88;;
61322;SDS011;47203;48.428;11.974;2023-02-01T00:13:36;4.80;;;2.53;;
61322;SDS011;47203;48.428;11.974;2023-02-01T00:15:42;4.78;;;3.08;;
61322;SDS011;47203;48.428;11.974;2023-02-01T00:17:47;3.78;;;2.60;;
61322;SDS011;47203;48.428;11.974;2023-02-01T00:19:52;4.70;;;3.28;;
61322;SDS011;47203;48.428;11.974;2023-02-01T00:21:57;5.30;;;3.00;;
61322;SDS011;47203;48.428;11.974;2023-02-01T00:24:01;4.22;;;3.03;;
61322;SDS011;47203;48.428;11.974;2023-02-01T00:26:09;5.00;;;2.70;;
61322;SDS011;47203;48.428;11.974;2023-02-01T00:28:20;6.32;;;3.38;;
61322;SDS011;47203;48.428;11.974;2023-02-01T00:30:25;5.90;;;3.20;;
61322;SDS011;47203;48.428;11.974;2023-02-01T00:32:30;4.65;;;3.30;;
61322;SDS011;47203;48.428;11.974;2023-02-01T00:34:35;5.43;;;3.08;;
61322;SDS011;47203;48.428;11.974;2023-02-01T00:36:40;3.67;;;2.42;;
61322;SDS011;47203;48.428;11.974;2023-02-01T00:38:45;6.35;;;2.83;;
61322;SDS011;47203;48.428;11.974;2023-02-01T00:40:49;5.38;;;3.67;;
61322;SDS011;47203;48.428;11.974;2023-02-01T00:42:54;4.30;;;2.80;;
61322;SDS011;47203;48.428;11.974;2023-02-01T00:45:01;4.57;;;3.03;;
61322;SDS011;47203;48.428;11.974;2023-02-01T00:47:06;5.78;;;3.40;;
61322;SDS011;47203;48.428;11.974;2023-02-01T00:49:11;6.45;;;3.25;;
61322;SDS011;47203;48.428;11.974;2023-02-01T00:51:17;5.07;;;3.03;;
61322;SDS011;47203;48.428;11.974;2023-02-01T00:53:23;5.88;;;3.30;;
61322;SDS011;47203;48.428;11.974;2023-02-01T00:55:28;4.18;;;2.88;;
61322;SDS011;47203;48.428;11.974;2023-02-01T00:57:33;4.75;;;3.42;;
61322;SDS011;47203;48.428;11.974;2023-02-01T00:59:37;5.75;;;3.10;;
61322;SDS011;47203;48.428;11.974;2023-02-01T01:01:45;5.50;;;3.03;;
61322;SDS011;47203;48.428;11.974;2023-02-01T01:03:50;5.57;;;3.08;;
61322;SDS011;47203;48.428;11.974;2023-02-01T01:05:56;4.53;;;2.88;;
61322;SDS011;47203;48.428;11.974;2023-02-01T01:08:01;4.45;;;2.92;;
61322;SDS011;47203;48.428;11.974;2023-02-01T01:10:06;4.57;;;3.05;;
61322;SDS011;47203;48.428;11.974;2023-02-01T01:12:12;5.03;;;3.40;;
61322;SDS011;47203;48.428;11.974;2023-02-01T01:14:16;6.30;;;3.20;;
61322;SDS011;47203;48.428;11.974;2023-02-01T01:16:22;5.25;;;3.22;;
61322;SDS011;47203;48.428;11.974;2023-02-01T01:18:31;5.35;;;3.00;;
61322;SDS011;47203;48.428;11.974;2023-02-01T01:20:38;7.45;;;3.22;;
61322;SDS011;47203;48.428;11.974;2023-02-01T01:22:44;3.88;;;2.75;;
61322;SDS011;47203;48.428;11.974;2023-02-01T01:24:49;5.15;;;3.42;;
61322;SDS011;47203;48.428;11.974;2023-02-01T01:26:53;4.80;;;3.33;;
61322;SDS011;47203;48.428;11.974;2023-02-01T01:28:59;6.30;;;3.33;;
61322;SDS011;47203;48.428;11.974;2023-02-01T01:31:04;6.47;;;3.88;;
61322;SDS011;47203;48.428;11.974;2023-02-01T01:33:12;5.82;;;3.67;;
61322;SDS011;47203;48.428;11.974;2023-02-01T01:35:20;4.38;;;3.10;;
61322;SDS011;47203;48.428;11.974;2023-02-01T01:37:25;6.28;;;3.67;;
61322;SDS011;47203;48.428;11.974;2023-02-01T01:39:29;7.13;;;3.45;;
61322;SDS011;47203;48.428;11.974;2023-02-01T01:41:34;7.05;;;3.22;;
61322;SDS011;47203;48.428;11.974;2023-02-01T01:43:50;5.63;;;3.08;;
61322;SDS011;47203;48.428;11.974;2023-02-01T01:45:58;5.18;;;3.55;;
61322;SDS011;47203;48.428;11.974;2023-02-01T01:48:04;5.85;;;3.75;;
61322;SDS011;47203;48.428;11.974;2023-02-01T01:50:14;5.97;;;3.20;;
61322;SDS011;47203;48.428;11.974;2023-02-01T01:52:24;5.45;;;3.20;;
61322;SDS011;47203;48.428;11.974;2023-02-01T01:54:29;6.63;;;4.00;;
61322;SDS011;47203;48.428;11.974;2023-02-01T01:56:37;7.03;;;3.80;;
61322;SDS011;47203;48.428;11.974;2023-02-01T01:58:42;5.13;;;3.65;;
61322;SDS011;47203;48.428;11.974;2023-02-01T02:00:47;8.07;;;5.03;;
61322;SDS011;47203;48.428;11.974;2023-02-01T02:02:53;7.60;;;3.22;;
61322;SDS011;47203;48.428;11.974;2023-02-01T02:05:11;5.93;;;3.33;;
61322;SDS011;47203;48.428;11.974;2023-02-01T02:07:18;4.55;;;3.45;;
61322;SDS011;47203;48.428;11.974;2023-02-01T02:09:30;4.18;;;3.03;;
61322;SDS011;47203;48.428;11.974;2023-02-01T02:11:34;4.75;;;3.10;;
61322;SDS011;47203;48.428;11.974;2023-02-01T02:13:41;6.75;;;3.72;;
61322;SDS011;47203;48.428;11.974;2023-02-01T02:15:49;7.32;;;3.55;;
61322;SDS011;47203;48.428;11.974;2023-02-01T02:18:04;6.40;;;3.75;;
61322;SDS011;47203;48.428;11.974;2023-02-01T02:20:22;6.13;;;4.07;;
61322;SDS011;47203;48.428;11.974;2023-02-01T02:22:44;6.70;;;3.65;;
61322;SDS011;47203;48.428;11.974;2023-02-01T02:25:25;6.03;;;4.55;;
61322;SDS011;47203;48.428;11.974;2023-02-01T02:27:50;6.60;;;3.63;;
61322;SDS011;47203;48.428;11.974;2023-02-01T02:30:22;5.72;;;3.47;;
61322;SDS011;47203;48.428;11.974;2023-02-01T02:35:40;8.68;;;4.40;;
61322;SDS011;47203;48.428;11.974;2023-02-01T02:37:53;6.43;;;4.25;;
61322;SDS011;47203;48.428;11.974;2023-02-01T02:42:17;6.03;;;3.55;;
61322;SDS011;47203;48.428;11.974;2023-02-01T02:44:45;6.28;;;3.65;;
61322;SDS011;47203;48.428;11.974;2023-02-01T02:47:08;7.47;;;4.55;;
61322;SDS011;47203;48.428;11.974;2023-02-01T02:49:32;7.13;;;4.82;;
61322;SDS011;47203;48.428;11.974;2023-02-01T02:51:44;10.93;;;5.40;;
61322;SDS011;47203;48.428;11.974;2023-02-01T02:54:09;6.05;;;4.30;;
61322;SDS011;47203;48.428;11.974;2023-02-01T02:56:29;7.05;;;4.40;;
61322;SDS011;47203;48.428;11.974;2023-02-01T02:58:46;5.78;;;4.05;;
61322;SDS011;47203;48.428;11.974;2023-02-01T03:01:05;6.30;;;4.18;;
61322;SDS011;47203;48.428;11.974;2023-02-01T03:03:23;5.55;;;3.85;;
61322;SDS011;47203;48.428;11.974;2023-02-01T03:05:42;6.60;;;4.28;;
61322;SDS011;47203;48.428;11.974;2023-02-01T03:07:53;7.97;;;4.20;;
61322;SDS011;47203;48.428;11.974;2023-02-01T03:10:07;6.45;;;4.55;;
61322;SDS011;47203;48.428;11.974;2023-02-01T03:12:17;5.60;;;4.35;;
61322;SDS011;47203;48.428;11.974;2023-02-01T03:14:36;5.18;;;4.10;;
61322;SDS011;47203;48.428;11.974;2023-02-01T03:16:46;7.32;;;4.40;;
61322;SDS011;47203;48.428;11.974;2023-02-01T03:18:56;5.13;;;4.20;;
61322;SDS011;47203;48.428;11.974;2023-02-01T03:21:06;6.75;;;4.63;;
61322;SDS011;47203;48.428;11.974;2023-02-01T03:23:17;6.20;;;4.20;;
61322;SDS011;47203;48.428;11.974;2023-02-01T03:25:27;6.40;;;3.53;;
61322;SDS011;47203;48.428;11.974;2023-02-01T03:27:36;5.00;;;3.78;;
61322;SDS011;47203;48.428;11.974;2023-02-01T03:29:45;5.88;;;4.00;;
61322;SDS011;47203;48.428;11.974;2023-02-01T03:31:55;5.85;;;4.50;;
61322;SDS011;47203;48.428;11.974;2023-02-01T03:34:00;6.80;;;4.30;;
61322;SDS011;47203;48.428;11.974;2023-02-01T03:36:11;5.18;;;3.92;;
61322;SDS011;47203;48.428;11.974;2023-02-01T03:38:28;6.47;;;4.05;;
61322;SDS011;47203;48.428;11.974;2023-02-01T03:40:38;5.90;;;4.15;;
61322;SDS011;47203;48.428;11.974;2023-02-01T03:42:47;7.25;;;3.55;;
61322;SDS011;47203;48.428;11.974;2023-02-01T03:44:57;5.75;;;3.92;;
61322;SDS011;47203;48.428;11.974;2023-02-01T03:47:09;5.07;;;3.53;;
61322;SDS011;47203;48.428;11.974;2023-02-01T03:49:19;5.57;;;3.40;;
61322;SDS011;47203;48.428;11.974;2023-02-01T03:51:27;5.82;;;4.05;;
61322;SDS011;47203;48.428;11.974;2023-02-01T03:53:37;6.22;;;4.05;;
61322;SDS011;47203;48.428;11.974;2023-02-01T03:55:47;6.75;;;3.58;;
61322;SDS011;47203;48.428;11.974;2023-02-01T03:57:55;5.97;;;4.00;;
61322;SDS011;47203;48.428;11.974;2023-02-01T04:00:06;5.82;;;3.55;;
61322;SDS011;47203;48.428;11.974;2023-02-01T04:02:16;5.60;;;4.03;;
61322;SDS011;47203;48.428;11.974;2023-02-01T04:04:21;4.85;;;3.75;;
61322;SDS011;47203;48.428;11.974;2023-02-01T04:06:28;5.55;;;3.63;;
61322;SDS011;47203;48.428;11.974;2023-02-01T04:08:38;5.75;;;3.92;;
61322;SDS011;47203;48.428;11.974;2023-02-01T04:10:43;6.72;;;4.20;;
61322;SDS011;47203;48.428;11.974;2023-02-01T04:12:48;6.13;;;4.38;;
61322;SDS011;47203;48.428;11.974;2023-02-01T04:14:52;6.05;;;3.83;;
61322;SDS011;47203;48.428;11.974;2023-02-01T04:16:57;6.63;;;3.97;;
61322;SDS011;47203;48.428;11.974;2023-02-01T04:19:02;8.00;;;3.72;;
61322;SDS011;47203;48.428;11.974;2023-02-01T04:21:07;7.43;;;3.83;;
61322;SDS011;47203;48.428;11.974;2023-02-01T04:23:11;5.28;;;3.50;;
61322;SDS011;47203;48.428;11.974;2023-02-01T04:25:19;6.13;;;3.53;;
61322;SDS011;47203;48.428;11.974;2023-02-01T04:27:25;6.05;;;3.83;;
61322;SDS011;47203;48.428;11.974;2023-02-01T04:29:30;6.22;;;3.85;;
61322;SDS011;47203;48.428;11.974;2023-02-01T04:31:35;6.45;;;3.85;;
61322;SDS011;47203;48.428;11.974;2023-02-01T04:33:40;5.95;;;3.53;;
61322;SDS011;47203;48.428;11.974;2023-02-01T04:35:45;6.40;;;4.00;;
61322;SDS011;47203;48.428;11.974;2023-02-01T04:37:49;6.05;;;3.40;;
61322;SDS011;47203;48.428;11.974;2023-02-01T04:39:54;5.35;;;3.40;;
61322;SDS011;47203;48.428;11.974;2023-02-01T04:42:01;6.28;;;3.78;;
61322;SDS011;47203;48.428;11.974;2023-02-01T04:44:08;6.70;;;4.15;;
61322;SDS011;47203;48.428;11.974;2023-02-01T04:46:17;7.15;;;3.70;;
61322;SDS011;47203;48.428;11.974;2023-02-01T04:48:22;5.25;;;3.45;;
61322;SDS011;47203;48.428;11.974;2023-02-01T04:50:27;5.13;;;3.50;;
61322;SDS011;47203;48.428;11.974;2023-02-01T04:52:32;6.38;;;3.30;;
61322;SDS011;47203;48.428;11.974;2023-02-01T04:54:37;4.40;;;3.53;;
61322;SDS011;47203;48.428;11.974;2023-02-01T04:56:42;4.15;;;3.40;;
61322;SDS011;47203;48.428;11.974;2023-02-01T04:58:49;4.28;;;3.00;;
61322;SDS011;47203;48.428;11.974;2023-02-01T05:00:54;4.53;;;2.97;;
61322;SDS011;47203;48.428;11.974;2023-02-01T05:02:58;5.13;;;3.63;;
61322;SDS011;47203;48.428;11.974;2023-02-01T05:05:04;4.07;;;2.97;;
61322;SDS011;47203;48.428;11.974;2023-02-01T05:07:09;5.43;;;3.40;;
61322;SDS011;47203;48.428;11.974;2023-02-01T05:09:14;4.72;;;3.25;;
61322;SDS011;47203;48.428;11.974;2023-02-01T05:11:18;5.43;;;3.17;;
61322;SDS011;47203;48.428;11.974;2023-02-01T05:13:36;4.50;;;3.40;;
61322;SDS011;47203;48.428;11.974;2023-02-01T05:15:55;4.40;;;3.15;;
61322;SDS011;47203;48.428;11.974;2023-02-01T05:18:00;5.57;;;3.33;;
61322;SDS011;47203;48.428;11.974;2023-02-01T05:20:05;4.78;;;3.00;;
61322;SDS011;47203;48.428;11.974;2023-02-01T05:22:11;4.68;;;2.63;;
61322;SDS011;47203;48.428;11.974;2023-02-01T05:24:16;5.18;;;2.97;;
61322;SDS011;47203;48.428;11.974;2023-02-01T05:26:23;5.40;;;3.30;;
61322;SDS011;47203;48.428;11.974;2023-02-01T05:28:28;4.10;;;2.78;;
61322;SDS011;47203;48.428;11.974;2023-02-01T05:30:33;6.10;;;3.17;;
61322;SDS011;47203;48.428;11.974;2023-02-01T05:32:45;5.10;;;2.88;;
61322;SDS011;47203;48.428;11.974;2023-02-01T05:34:50;4.53;;;2.92;;
61322;SDS011;47203;48.428;11.974;2023-02-01T05:36:54;5.20;;;3.88;;
61322;SDS011;47203;48.428;11.974;2023-02-01T05:38:59;5.70;;;3.47;;
61322;SDS011;47203;48.428;11.974;2023-02-01T05:41:04;4.40;;;2.88;;
61322;SDS011;47203;48.428;11.974;2023-02-01T05:43:09;4.05;;;2.85;;
61322;SDS011;47203;48.428;11.974;2023-02-01T05:45:13;5.18;;;3.08;;
61322;SDS011;47203;48.428;11.974;2023-02-01T05:47:18;4.72;;;3.28;;
61322;SDS011;47203;48.428;11.974;2023-02-01T05:49:25;5.03;;;3.03;;
61322;SDS011;47203;48.428;11.974;2023-02-01T05:51:30;4.60;;;2.70;;
61322;SDS011;47203;48.428;11.974;2023-02-01T05:53:35;6.43;;;3.10;;
61322;SDS011;47203;48.428;11.974;2023-02-01T05:55:40;4.97;;;3.35;;
61322;SDS011;47203;48.428;11.974;2023-02-01T05:57:46;5.82;;;2.95;;
61322;SDS011;47203;48.428;11.974;2023-02-01T05:59:50;4.80;;;2.60;;
61322;SDS011;47203;48.428;11.974;2023-02-01T06:01:55;3.95;;;2.75;;
61322;SDS011;47203;48.428;11.974;2023-02-01T06:04:00;4.85;;;2.80;;
61322;SDS011;47203;48.428;11.974;2023-02-01T06:06:08;4.63;;;2.63;;
61322;SDS011;47203;48.428;11.974;2023-02-01T06:08:12;3.50;;;2.50;;
61322;SDS011;47203;48.428;11.974;2023-02-01T06:10:18;5.82;;;2.85;;
61322;SDS011;47203;48.428;11.974;2023-02-01T06:12:24;4.30;;;2.80;;
61322;SDS011;47203;48.428;11.974;2023-02-01T06:14:29;5.00;;;3.10;;
61322;SDS011;47203;48.428;11.974;2023-02-01T06:16:34;4.05;;;2.63;;
61322;SDS011;47203;48.428;11.974;2023-02-01T06:18:38;5.15;;;3.10;;
61322;SDS011;47203;48.428;11.974;2023-02-01T06:20:43;4.18;;;3.10;;
61322;SDS011;47203;48.428;11.974;2023-02-01T06:22:50;3.13;;;2.47;;
61322;SDS011;47203;48.428;11.974;2023-02-01T06:24:55;4.05;;;2.75;;
61322;SDS011;47203;48.428;11.974;2023-02-01T06:27:00;4.18;;;2.63;;
61322;SDS011;47203;48.428;11.974;2023-02-01T06:29:05;4.75;;;3.20;;
61322;SDS011;47203;48.428;11.974;2023-02-01T06:31:09;3.92;;;2.97;;
61322;SDS011;47203;48.428;11.974;2023-02-01T06:33:15;5.78;;;4.15;;
61322;SDS011;47203;48.428;11.974;2023-02-01T06:35:19;4.88;;;3.42;;
61322;SDS011;47203;48.428;11.974;2023-02-01T06:37:28;4.53;;;2.88;;
61322;SDS011;47203;48.428;11.974;2023-02-01T06:39:36;4.72;;;3.10;;
61322;SDS011;47203;48.428;11.974;2023-02-01T06:41:41;5.20;;;3.08;;
61322;SDS011;47203;48.428;11.974;2023-02-01T06:43:46;5.38;;;3.65;;
61322;SDS011;47203;48.428;11.974;2023-02-01T06:45:50;7.55;;;4.97;;
61322;SDS011;47203;48.428;11.974;2023-02-01T06:47:56;5.28;;;3.58;;
61322;SDS011;47203;48.428;11.974;2023-02-01T06:50:03;8.25;;;5.80;;
61322;SDS011;47203;48.428;11.974;2023-02-01T06:52:08;8.32;;;6.63;;
61322;SDS011;47203;48.428;11.974;2023-02-01T06:54:13;6.30;;;3.58;;
61322;SDS011;47203;48.428;11.974;2023-02-01T06:56:21;4.90;;;3.30;;
61322;SDS011;47203;48.428;11.974;2023-02-01T06:58:27;3.85;;;2.72;;
61322;SDS011;47203;48.428;11.974;2023-02-01T07:00:33;6.25;;;3.20;;
61322;SDS011;47203;48.428;11.974;2023-02-01T07:02:38;7.50;;;3.50;;
61322;SDS011;47203;48.428;11.974;2023-02-01T07:04:42;12.98;;;7.57;;
61322;SDS011;47203;48.428;11.974;2023-02-01T07:06:47;5.80;;;3.97;;
61322;SDS011;47203;48.428;11.974;2023-02-01T07:08:52;5.10;;;3.55;;
61322;SDS011;47203;48.428;11.974;2023-02-01T07:11:00;6.18;;;2.70;;
61322;SDS011;47203;48.428;11.974;2023-02-01T07:13:09;4.97;;;2.88;;
61322;SDS011;47203;48.428;11.974;2023-02-01T07:15:14;4.38;;;2.53;;
61322;SDS011;47203;48.428;11.974;2023-02-01T07:17:19;4.55;;;2.83;;
61322;SDS011;47203;48.428;11.974;2023-02-01T07:19:23;4.80;;;2.92;;
61322;SDS011;47203;48.428;11.974;2023-02-01T07:21:28;5.93;;;3.08;;
61322;SDS011;47203;48.428;11.974;2023-02-01T07:23:33;5.07;;;3.05;;
61322;SDS011;47203;48.428;11.974;2023-02-01T07:25:38;5.03;;;3.42;;
61322;SDS011;47203;48.428;11.974;2023-02-01T07:27:43;4.13;;;2.70;;
61322;SDS011;47203;48.428;11.974;2023-02-01T07:29:50;4.18;;;2.90;;
61322;SDS011;47203;48.428;11.974;2023-02-01T07:31:57;3.47;;;2.65;;
61322;SDS011;47203;48.428;11.974;2023-02-01T07:34:01;4.35;;;2.83;;
61322;SDS011;47203;48.428;11.974;2023-02-01T07:36:07;4.68;;;3.00;;
61322;SDS011;47203;48.428;11.974;2023-02-01T07:38:15;4.68;;;3.20;;
61322;SDS011;47203;48.428;11.974;2023-02-01T07:40:21;9.70;;;5.95;;
61322;SDS011;47203;48.428;11.974;2023-02-01T07:42:30;7.05;;;3.10;;
61322;SDS011;47203;48.428;11.974;2023-02-01T07:44:34;6.85;;;3.72;;
61322;SDS011;47203;48.428;11.974;2023-02-01T07:46:43;7.35;;;4.22;;
61322;SDS011;47203;48.428;11.974;2023-02-01T07:48:47;14.85;;;6.97;;
61322;SDS011;47203;48.428;11.974;2023-02-01T07:50:58;5.38;;;3.75;;
61322;SDS011;47203;48.428;11.974;2023-02-01T07:53:04;4.28;;;2.80;;
61322;SDS011;47203;48.428;11.974;2023-02-01T07:55:09;7.10;;;3.53;;
61322;SDS011;47203;48.428;11.974;2023-02-01T07:57:13;5.28;;;3.08;;
61322;SDS011;47203;48.428;11.974;2023-02-01T07:59:18;4.90;;;2.65;;
61322;SDS011;47203;48.428;11.974;2023-02-01T08:01:24;4.18;;;2.50;;
61322;SDS011;47203;48.428;11.974;2023-02-01T08:03:30;6.47;;;3.45;;
61322;SDS011;47203;48.428;11.974;2023-02-01T08:05:35;4.78;;;3.05;;
61322;SDS011;47203;48.428;11.974;2023-02-01T08:07:41;3.88;;;2.75;;
61322;SDS011;47203;48.428;11.974;2023-02-01T08:09:45;4.15;;;2.92;;
61322;SDS011;47203;48.428;11.974;2023-02-01T08:11:50;4.80;;;3.20;;
61322;SDS011;47203;48.428;11.974;2023-02-01T08:13:55;5.15;;;3.05;;
61322;SDS011;47203;48.428;11.974;2023-02-01T08:16:04;4.47;;;2.88;;
61322;SDS011;47203;48.428;11.974;2023-02-01T08:18:10;7.72;;;3.83;;
61322;SDS011;47203;48.428;11.974;2023-02-01T08:20:20;4.65;;;3.05;;
61322;SDS011;47203;48.428;11.974;2023-02-01T08:22:31;4.22;;;2.97;;
61322;SDS011;47203;48.428;11.974;2023-02-01T08:24:36;6.35;;;3.58;;
61322;SDS011;47203;48.428;11.974;2023-02-01T08:26:43;8.25;;;3.55;;
61322;SDS011;47203;48.428;11.974;2023-02-01T08:28:48;4.75;;;3.20;;
61322;SDS011;47203;48.428;11.974;2023-02-01T08:30:54;6.82;;;3.72;;
61322;SDS011;47203;48.428;11.974;2023-02-01T08:32:59;5.22;;;3.40;;
61322;SDS011;47203;48.428;11.974;2023-02-01T08:35:04;4.45;;;3.08;;
61322;SDS011;47203;48.428;11.974;2023-02-01T08:37:12;6.05;;;4.78;;
61322;SDS011;47203;48.428;11.974;2023-02-01T08:39:17;4.43;;;2.90;;
61322;SDS011;47203;48.428;11.974;2023-02-01T08:41:22;4.15;;;2.60;;
61322;SDS011;47203;48.428;11.974;2023-02-01T08:43:32;4.25;;;2.55;;
61322;SDS011;47203;48.428;11.974;2023-02-01T08:45:37;3.92;;;2.53;;
61322;SDS011;47203;48.428;11.974;2023-02-01T08:47:41;4.18;;;2.70;;
61322;SDS011;47203;48.428;11.974;2023-02-01T08:49:48;3.78;;;2.65;;
61322;SDS011;47203;48.428;11.974;2023-02-01T08:51:53;6.10;;;2.85;;
61322;SDS011;47203;48.428;11.974;2023-02-01T08:54:06;5.68;;;3.20;;
61322;SDS011;47203;48.428;11.974;2023-02-01T08:56:11;6.18;;;2.80;;
61322;SDS011;47203;48.428;11.974;2023-02-01T08:58:17;8.20;;;3.00;;
61322;SDS011;47203;48.428;11.974;2023-02-01T09:00:23;5.90;;;3.22;;
61322;SDS011;47203;48.428;11.974;2023-02-01T09:02:28;3.95;;;2.83;;
61322;SDS011;47203;48.428;11.974;2023-02-01T09:04:32;5.25;;;2.40;;
61322;SDS011;47203;48.428;11.974;2023-02-01T09:06:37;4.43;;;2.47;;
61322;SDS011;47203;48.428;11.974;2023-02-01T09:08:45;3.17;;;2.20;;
61322;SDS011;47203;48.428;11.974;2023-02-01T09:10:52;3.63;;;2.35;;
61322;SDS011;47203;48.428;11.974;2023-02-01T09:12:57;3.95;;;2.70;;
61322;SDS011;47203;48.428;11.974;2023-02-01T09:15:02;4.28;;;2.50;;
61322;SDS011;47203;48.428;11.974;2023-02-01T09:17:08;5.07;;;2.70;;
61322;SDS011;47203;48.428;11.974;2023-02-01T09:19:14;4.60;;;2.75;;
61322;SDS011;47203;48.428;11.974;2023-02-01T09:21:27;4.75;;;2.60;;
61322;SDS011;47203;48.428;11.974;2023-02-01T09:23:32;4.05;;;2.20;;
61322;SDS011;47203;48.428;11.974;2023-02-01T09:25:37;4.60;;;2.80;;
61322;SDS011;47203;48.428;11.974;2023-02-01T09:27:45;4.07;;;2.80;;
61322;SDS011;47203;48.428;11.974;2023-02-01T09:29:49;3.38;;;2.20;;
61322;SDS011;47203;48.428;11.974;2023-02-01T09:31:55;3.60;;;2.40;;
61322;SDS011;47203;48.428;11.974;2023-02-01T09:34:05;3.63;;;2.30;;
61322;SDS011;47203;48.428;11.974;2023-02-01T09:36:10;3.97;;;2.60;;
61322;SDS011;47203;48.428;11.974;2023-02-01T09:38:15;4.50;;;2.60;;
61322;SDS011;47203;48.428;11.974;2023-02-01T09:40:20;4.78;;;2.25;;
61322;SDS011;47203;48.428;11.974;2023-02-01T09:42:32;3.42;;;2.28;;
61322;SDS011;47203;48.428;11.974;2023-02-01T09:44:59;4.55;;;2.53;;
61322;SDS011;47203;48.428;11.974;2023-02-01T09:47:14;4.47;;;2.35;;
61322;SDS011;47203;48.428;11.974;2023-02-01T09:49:24;3.80;;;2.10;;
61322;SDS011;47203;48.428;11.974;2023-02-01T09:51:33;3.42;;;2.10;;
61322;SDS011;47203;48.428;11.974;2023-02-01T09:53:42;3.88;;;2.20;;
61322;SDS011;47203;48.428;11.974;2023-02-01T09:55:53;3.25;;;2.00;;
61322;SDS011;47203;48.428;11.974;2023-02-01T09:58:04;3.42;;;2.08;;
61322;SDS011;47203;48.428;11.974;2023-02-01T10:00:15;9.98;;;2.50;;
61322;SDS011;47203;48.428;11.974;2023-02-01T10:02:26;3.72;;;2.28;;
61322;SDS011;47203;48.428;11.974;2023-02-01T10:04:32;3.10;;;1.98;;
61322;SDS011;47203;48.428;11.974;2023-02-01T10:06:40;5.55;;;2.22;;
61322;SDS011;47203;48.428;11.974;2023-02-01T10:09:01;3.67;;;2.38;;
61322;SDS011;47203;48.428;11.974;2023-02-01T10:11:20;4.93;;;2.38;;
61322;SDS011;47203;48.428;11.974;2023-02-01T10:13:38;5.38;;;2.10;;
61322;SDS011;47203;48.428;11.974;2023-02-01T10:15:55;3.75;;;1.98;;
61322;SDS011;47203;48.428;11.974;2023-02-01T10:18:21;4.53;;;2.10;;
61322;SDS011;47203;48.428;11.974;2023-02-01T10:20:39;3.38;;;1.98;;
61322;SDS011;47203;48.428;11.974;2023-02-01T10:22:54;4.43;;;2.60;;
61322;SDS011;47203;48.428;11.974;2023-02-01T10:25:30;3.00;;;2.13;;
61322;SDS011;47203;48.428;11.974;2023-02-01T10:27:41;4.85;;;2.30;;
61322;SDS011;47203;48.428;11.974;2023-02-01T10:29:50;3.80;;;2.03;;
61322;SDS011;47203;48.428;11.974;2023-02-01T10:31:58;3.67;;;2.10;;
61322;SDS011;47203;48.428;11.974;2023-02-01T10:34:06;4.45;;;2.35;;
61322;SDS011;47203;48.428;11.974;2023-02-01T10:36:21;5.20;;;2.10;;
61322;SDS011;47203;48.428;11.974;2023-02-01T10:38:31;5.22;;;3.30;;
61322;SDS011;47203;48.428;11.974;2023-02-01T10:40:37;4.85;;;2.42;;
61322;SDS011;47203;48.428;11.974;2023-02-01T10:42:42;4.53;;;2.22;;
61322;SDS011;47203;48.428;11.974;2023-02-01T10:44:51;3.33;;;2.10;;
61322;SDS011;47203;48.428;11.974;2023-02-01T10:46:57;3.10;;;1.92;;
61322;SDS011;47203;48.428;11.974;2023-02-01T10:49:03;3.63;;;2.35;;
61322;SDS011;47203;48.428;11.974;2023-02-01T10:51:11;4.72;;;2.63;;
61322;SDS011;47203;48.428;11.974;2023-02-01T10:53:21;4.97;;;2.55;;
61322;SDS011;47203;48.428;11.974;2023-02-01T10:55:35;4.78;;;2.47;;
61322;SDS011;47203;48.428;11.974;2023-02-01T10:57:42;4.82;;;2.90;;
61322;SDS011;47203;48.428;11.974;2023-02-01T11:00:06;3.83;;;2.00;;
61322;SDS011;47203;48.428;11.974;2023-02-01T11:02:25;3.53;;;2.05;;
61322;SDS011;47203;48.428;11.974;2023-02-01T11:04:33;3.17;;;2.30;;
61322;SDS011;47203;48.428;11.974;2023-02-01T11:06:39;3.90;;;1.83;;
61322;SDS011;47203;48.428;11.974;2023-02-01T11:08:46;3.28;;;2.30;;
61322;SDS011;47203;48.428;11.974;2023-02-01T11:10:57;3.35;;;1.85;;
61322;SDS011;47203;48.428;11.974;2023-02-01T11:13:03;4.32;;;1.90;;
61322;SDS011;47203;48.428;11.974;2023-02-01T11:15:26;5.15;;;2.15;;
61322;SDS011;47203;48.428;11.974;2023-02-01T11:17:32;3.45;;;1.92;;
61322;SDS011;47203;48.428;11.974;2023-02-01T11:19:40;5.28;;;2.13;;
61322;SDS011;47203;48.428;11.974;2023-02-01T11:21:48;3.00;;;1.80;;
61322;SDS011;47203;48.428;11.974;2023-02-01T11:23:55;3.90;;;2.10;;
61322;SDS011;47203;48.428;11.974;2023-02-01T11:26:09;4.85;;;2.22;;
61322;SDS011;47203;48.428;11.974;2023-02-01T11:28:16;3.83;;;2.08;;
61322;SDS011;47203;48.428;11.974;2023-02-01T11:30:26;4.63;;;1.98;;
61322;SDS011;47203;48.428;11.974;2023-02-01T11:32:36;2.65;;;1.90;;
61322;SDS011;47203;48.428;11.974;2023-02-01T11:34:45;2.58;;;1.40;;
61322;SDS011;47203;48.428;11.974;2023-02-01T11:36:53;4.43;;;1.75;;
61322;SDS011;47203;48.428;11.974;2023-02-01T11:39:09;4.07;;;2.10;;
61322;SDS011;47203;48.428;11.974;2023-02-01T11:41:25;3.50;;;1.60;;
61322;SDS011;47203;48.428;11.974;2023-02-01T11:43:33;3.53;;;1.75;;
61322;SDS011;47203;48.428;11.974;2023-02-01T11:45:41;3.70;;;1.83;;
61322;SDS011;47203;48.428;11.974;2023-02-01T11:47:58;5.13;;;2.28;;
61322;SDS011;47203;48.428;11.974;2023-02-01T11:50:05;3.65;;;1.88;;
61322;SDS011;47203;48.428;11.974;2023-02-01T11:52:23;2.95;;;1.80;;
61322;SDS011;47203;48.428;11.974;2023-02-01T11:54:45;3.10;;;1.70;;
61322;SDS011;47203;48.428;11.974;2023-02-01T11:57:04;3.83;;;2.07;;
61322;SDS011;47203;48.428;11.974;2023-02-01T11:59:28;2.60;;;1.77;;
61322;SDS011;47203;48.428;11.974;2023-02-01T12:02:02;5.25;;;1.98;;
61322;SDS011;47203;48.428;11.974;2023-02-01T12:04:40;5.32;;;2.17;;
61322;SDS011;47203;48.428;11.974;2023-02-01T12:07:12;4.00;;;1.77;;
61322;SDS011;47203;48.428;11.974;2023-02-01T12:09:40;4.20;;;2.00;;
61322;SDS011;47203;48.428;11.974;2023-02-01T12:11:56;3.72;;;1.90;;
61322;SDS011;47203;48.428;11.974;2023-02-01T12:14:15;3.85;;;1.85;;
61322;SDS011;47203;48.428;11.974;2023-02-01T12:16:31;3.08;;;1.83;;
61322;SDS011;47203;48.428;11.974;2023-02-01T12:19:02;3.45;;;2.10;;
61322;SDS011;47203;48.428;11.974;2023-02-01T12:21:25;5.55;;;2.53;;
61322;SDS011;47203;48.428;11.974;2023-02-01T12:23:46;3.10;;;1.85;;
61322;SDS011;47203;48.428;11.974;2023-02-01T12:26:26;7.63;;;2.92;;
61322;SDS011;47203;48.428;11.974;2023-02-01T12:28:47;4.32;;;2.28;;
61322;SDS011;47203;48.428;11.974;2023-02-01T12:31:19;3.10;;;1.85;;
61322;SDS011;47203;48.428;11.974;2023-02-01T12:33:39;4.32;;;2.40;;
61322;SDS011;47203;48.428;11.974;2023-02-01T12:36:06;8.55;;;2.55;;
61322;SDS011;47203;48.428;11.974;2023-02-01T12:38:23;5.43;;;2.70;;
61322;SDS011;47203;48.428;11.974;2023-02-01T12:40:43;4.97;;;2.28;;
61322;SDS011;47203;48.428;11.974;2023-02-01T12:43:01;5.60;;;2.13;;
61322;SDS011;47203;48.428;11.974;2023-02-01T12:45:12;3.78;;;2.20;;
61322;SDS011;47203;48.428;11.974;2023-02-01T12:47:26;3.97;;;2.50;;
61322;SDS011;47203;48.428;11.974;2023-02-01T12:49:41;5.10;;;2.05;;
61322;SDS011;47203;48.428;11.974;2023-02-01T12:51:54;3.65;;;2.17;;